createdAt,value
2023-07-14T00:04:45.449Z,17.24
2023-07-14T00:14:48.536Z,16.67
2023-07-14T00:24:51.066Z,16.89
2023-07-14T00:34:54.172Z,16.78
2023-07-14T00:44:56.984Z,16.72
2023-07-14T00:54:59.716Z,16.62
2023-07-14T01:05:05.331Z,15.90
2023-07-14T01:15:09.101Z,16.64
2023-07-14T01:25:27.694Z,16.66
2023-07-14T01:35:34.061Z,16.35
2023-07-14T01:45:45.385Z,16.04
2023-07-14T01:55:49.181Z,16.75
2023-07-14T02:05:51.630Z,16.86
2023-07-14T02:15:54.746Z,16.54
2023-07-14T02:26:33.709Z,16.01
2023-07-14T02:36:54.693Z,16.24
2023-07-14T02:47:05.052Z,16.39
2023-07-14T02:57:07.816Z,16.00
2023-07-14T03:07:10.379Z,16.04
2023-07-14T03:17:13.328Z,16.06
2023-07-14T03:27:16.120Z,16.20
2023-07-14T03:37:18.767Z,16.15
2023-07-14T03:47:21.629Z,16.12
2023-07-14T03:57:24.314Z,15.88
2023-07-14T04:07:26.782Z,16.24
2023-07-14T04:17:30.787Z,16.06
2023-07-14T04:27:34.619Z,16.59
2023-07-14T04:37:37.142Z,16.95
2023-07-14T04:47:39.751Z,16.55
2023-07-14T04:57:42.456Z,17.32
2023-07-14T05:07:44.923Z,17.44
2023-07-14T05:17:47.594Z,17.85
2023-07-14T05:27:50.482Z,17.20
2023-07-14T05:37:54.909Z,17.86
2023-07-14T05:47:57.657Z,18.06
2023-07-14T05:58:00.160Z,17.88
2023-07-14T06:08:02.861Z,18.42
2023-07-14T06:18:05.451Z,17.95
2023-07-14T06:28:08.459Z,18.07
2023-07-14T06:38:11.625Z,18.09
2023-07-14T06:48:14.109Z,17.96
2023-07-14T06:58:16.507Z,17.84
2023-07-14T07:08:19.338Z,19.01
2023-07-14T07:18:27.154Z,18.82
2023-07-14T07:28:29.887Z,18.69
2023-07-14T07:38:32.292Z,19.00
2023-07-14T07:48:37.131Z,19.52
2023-07-14T07:58:40.335Z,19.57
2023-07-14T08:08:43.417Z,20.34
2023-07-14T08:18:45.895Z,20.14
2023-07-14T08:28:48.469Z,20.50
2023-07-14T08:38:51.317Z,20.64
2023-07-14T08:49:05.351Z,21.27
2023-07-14T08:59:15.147Z,21.84
2023-07-14T09:09:25.861Z,21.03
2023-07-14T09:19:52.939Z,22.31
2023-07-14T09:29:56.157Z,21.36
2023-07-14T09:40:24.551Z,21.26
2023-07-14T09:50:27.530Z,22.79
2023-07-14T10:00:40.506Z,22.74
2023-07-14T10:10:45.275Z,22.13
2023-07-14T10:21:07.369Z,22.90
2023-07-14T10:31:42.064Z,22.97
2023-07-14T10:41:48.449Z,23.53
2023-07-14T10:51:55.515Z,23.13
2023-07-14T11:02:01.434Z,22.97
2023-07-14T11:12:26.895Z,23.73
2023-07-14T11:22:34.426Z,23.05
2023-07-14T11:32:49.131Z,23.21
2023-07-14T11:42:56.047Z,23.62
2023-07-14T11:53:00.277Z,24.07
2023-07-14T12:03:11.367Z,23.87
2023-07-14T12:13:34.864Z,25.12
2023-07-14T12:23:37.830Z,25.09
2023-07-14T12:33:40.727Z,25.52
2023-07-14T12:43:45.169Z,25.43
2023-07-14T12:54:14.203Z,24.99
2023-07-14T13:04:18.186Z,24.87
2023-07-14T13:14:27.891Z,25.96
2023-07-14T13:24:33.373Z,24.34
2023-07-14T13:34:40.133Z,24.43
2023-07-14T13:44:50.017Z,24.85
2023-07-14T13:54:59.403Z,25.06
2023-07-14T14:05:02.080Z,25.04
2023-07-14T14:15:04.948Z,25.69
2023-07-14T14:25:20.886Z,25.26
2023-07-14T14:35:35.912Z,26.02
2023-07-14T14:45:38.376Z,26.39
2023-07-14T14:55:41.033Z,26.64
2023-07-14T15:05:46.036Z,25.96
2023-07-14T15:15:51.592Z,25.51
2023-07-14T15:25:55.514Z,26.15
2023-07-14T15:35:58.609Z,25.54
2023-07-14T15:46:02.994Z,25.95
2023-07-14T15:56:06.245Z,26.35
2023-07-14T16:06:18.134Z,26.03
2023-07-14T16:16:21.349Z,26.18
2023-07-14T16:26:25.769Z,25.41
2023-07-14T16:36:30.852Z,25.29
2023-07-14T16:46:58.270Z,26.45
2023-07-14T16:57:01.129Z,25.84
2023-07-14T17:07:04.357Z,25.64
2023-07-14T17:17:07.121Z,26.12
2023-07-14T17:27:19.074Z,25.63
2023-07-14T17:37:25.158Z,25.39
2023-07-14T17:47:27.869Z,25.55
2023-07-14T17:57:31.718Z,26.23
2023-07-14T18:07:34.266Z,26.15
2023-07-14T18:17:36.779Z,25.36
2023-07-14T18:27:39.538Z,25.76
2023-07-14T18:37:42.389Z,26.24
2023-07-14T18:47:45.018Z,25.89
2023-07-14T18:57:51.418Z,24.62
2023-07-14T19:07:54.596Z,25.75
2023-07-14T19:17:57.280Z,25.22
2023-07-14T19:28:00.191Z,24.90
2023-07-14T19:38:05.717Z,24.61
2023-07-14T19:48:23.092Z,24.58
2023-07-14T19:58:27.258Z,24.17
2023-07-14T20:08:30.183Z,24.16
2023-07-14T20:18:33.966Z,23.76
2023-07-14T20:28:37.843Z,23.16
2023-07-14T20:38:41.569Z,22.93
2023-07-14T20:48:44.038Z,23.21
2023-07-14T20:58:48.628Z,23.26
2023-07-14T21:08:52.444Z,22.31
2023-07-14T21:18:55.222Z,23.47
2023-07-14T21:28:59.922Z,22.59
2023-07-14T21:39:02.585Z,22.52
2023-07-14T21:49:13.157Z,22.66
2023-07-14T21:59:20.621Z,22.77
2023-07-14T22:09:23.304Z,22.39
2023-07-14T22:19:26.106Z,22.44
2023-07-14T22:29:28.728Z,22.01
2023-07-14T22:39:31.622Z,21.99
2023-07-14T22:49:34.241Z,22.17
2023-07-14T22:59:36.640Z,22.19
2023-07-14T23:09:39.134Z,22.50
2023-07-14T23:19:41.631Z,22.54
2023-07-14T23:29:44.076Z,22.98
2023-07-14T23:39:47.216Z,22.36
2023-07-14T23:49:49.644Z,22.86
2023-07-14T23:59:52.121Z,22.97
